Time;durP1;ratioP1;P1;durP2;ratioP2;P2;SDS_P1;SDS_P2;PMS_P1;PMS_P2;Temp;Humidity;BMP_temperature;BMP_pressure;BME280_temperature;BME280_humidity;BME280_pressure;Samples;Min_cycle;Max_cycle;Signal;HPM_P1;HPM_P2
2022/11/30 00:00:20;;;;;;;15.35;11.77;;;7.40;99.90;;;;;;5028558;28;20417;-75
2022/11/30 00:02:45;;;;;;;15.23;11.18;;;7.40;99.90;;;;;;5047388;28;20436;-75
2022/11/30 00:05:11;;;;;;;13.80;11.32;;;7.30;99.90;;;;;;5048346;28;20448;-72
2022/11/30 00:07:37;;;;;;;14.90;11.63;;;7.30;99.90;;;;;;5049256;28;20389;-72
2022/11/30 00:10:03;;;;;;;14.60;11.40;;;7.30;99.90;;;;;;5049292;28;20787;-72
2022/11/30 00:12:29;;;;;;;14.63;11.93;;;7.30;99.90;;;;;;5049175;28;20385;-73
2022/11/30 00:14:55;;;;;;;15.18;11.50;;;7.30;99.90;;;;;;5031192;28;20396;-72
2022/11/30 00:17:20;;;;;;;15.75;12.35;;;7.30;99.90;;;;;;5048980;28;20463;-72
2022/11/30 00:19:46;;;;;;;15.18;12.23;;;7.20;99.90;;;;;;5050508;28;20386;-72
2022/11/30 00:22:11;;;;;;;16.23;11.60;;;7.20;99.90;;;;;;5052968;28;20377;-72
2022/11/30 00:24:37;;;;;;;13.53;10.87;;;7.20;99.90;;;;;;5034232;28;20894;-72
2022/11/30 00:27:02;;;;;;;15.27;11.20;;;7.30;99.90;;;;;;5052922;28;20377;-72
2022/11/30 00:29:28;;;;;;;15.73;11.63;;;7.30;99.90;;;;;;5052746;28;20944;-72
2022/11/30 00:31:53;;;;;;;13.57;10.70;;;7.30;99.90;;;;;;5052861;28;20899;-72
2022/11/30 00:34:19;;;;;;;12.93;10.73;;;7.30;99.90;;;;;;5051962;28;20444;-72
2022/11/30 00:36:44;;;;;;;15.32;11.75;;;7.30;99.90;;;;;;5052765;28;20408;-72
2022/11/30 00:39:10;;;;;;;15.43;11.57;;;7.30;99.90;;;;;;5052770;28;20740;-72
2022/11/30 00:41:35;;;;;;;15.02;12.02;;;7.40;99.90;;;;;;5052673;28;20377;-72
2022/11/30 00:44:01;;;;;;;15.73;12.00;;;7.40;99.90;;;;;;5049622;28;20405;-72
2022/11/30 00:46:26;;;;;;;13.90;11.30;;;7.40;99.90;;;;;;5053753;28;20442;-72
2022/11/30 00:48:52;;;;;;;14.87;11.83;;;7.30;99.90;;;;;;5036179;28;20440;-73
2022/11/30 00:51:19;;;;;;;15.07;10.83;;;7.30;99.90;;;;;;5054413;28;20405;-72
2022/11/30 00:53:46;;;;;;;13.88;10.50;;;7.30;99.90;;;;;;5044999;28;20409;-73
2022/11/30 00:56:11;;;;;;;15.05;10.82;;;7.40;99.90;;;;;;5037973;28;20399;-72
2022/11/30 00:58:37;;;;;;;14.90;11.13;;;7.40;99.90;;;;;;5025001;28;20422;-73
2022/11/30 01:01:03;;;;;;;15.90;11.70;;;7.30;99.90;;;;;;5049217;28;20893;-72
2022/11/30 01:03:28;;;;;;;14.30;11.07;;;7.30;99.90;;;;;;5047058;28;20819;-75
2022/11/30 01:05:54;;;;;;;13.57;10.73;;;7.30;99.90;;;;;;5038587;28;20771;-72
2022/11/30 01:08:19;;;;;;;15.40;10.87;;;7.20;99.90;;;;;;5047176;28;20516;-72
2022/11/30 01:10:48;;;;;;;13.85;11.20;;;7.20;99.90;;;;;;5039994;28;20397;-72
2022/11/30 01:13:14;;;;;;;14.10;10.65;;;7.30;99.90;;;;;;5051388;28;20428;-72
2022/11/30 01:15:42;;;;;;;12.77;9.98;;;7.20;99.90;;;;;;5050682;28;20433;-72
2022/11/30 01:18:08;;;;;;;13.88;10.95;;;7.30;99.90;;;;;;5051603;28;20496;-72
2022/11/30 01:20:33;;;;;;;13.10;10.65;;;7.20;99.90;;;;;;5051740;28;20757;-72
2022/11/30 01:22:59;;;;;;;12.13;10.32;;;7.30;99.90;;;;;;5051269;28;20377;-72
2022/11/30 01:25:25;;;;;;;11.88;10.30;;;7.30;99.90;;;;;;5051411;28;20386;-72
2022/11/30 01:27:50;;;;;;;13.43;10.75;;;7.30;99.90;;;;;;5048730;28;22101;-72
2022/11/30 01:30:17;;;;;;;14.65;11.43;;;7.40;99.90;;;;;;5042498;28;20483;-72
2022/11/30 01:32:42;;;;;;;15.52;11.57;;;7.40;99.90;;;;;;5045645;28;20417;-72
2022/11/30 01:35:08;;;;;;;15.80;11.57;;;7.30;99.90;;;;;;5042253;28;20421;-72
2022/11/30 01:37:34;;;;;;;14.30;11.80;;;7.30;99.90;;;;;;5022482;28;20885;-72
2022/11/30 01:39:59;;;;;;;14.00;11.93;;;7.30;99.90;;;;;;5024356;28;20472;-72
2022/11/30 01:42:25;;;;;;;12.30;10.20;;;7.30;99.90;;;;;;5032498;28;20494;-72
2022/11/30 01:44:57;;;;;;;14.95;11.20;;;7.30;99.90;;;;;;5048984;28;20397;-72
2022/11/30 01:47:31;;;;;;;13.98;11.00;;;7.30;99.90;;;;;;5042383;28;20401;-72
2022/11/30 01:50:03;;;;;;;14.73;11.55;;;7.30;99.90;;;;;;5030726;28;20414;-72
2022/11/30 01:52:34;;;;;;;13.90;11.38;;;7.20;99.90;;;;;;5048839;28;20458;-72
2022/11/30 01:55:12;;;;;;;12.77;11.05;;;7.30;99.90;;;;;;5042950;28;20406;-72
2022/11/30 01:57:42;;;;;;;16.25;11.15;;;7.20;99.90;;;;;;5045558;28;20409;-72
2022/11/30 02:00:11;;;;;;;14.35;11.00;;;7.30;99.90;;;;;;5018709;28;21043;-72
2022/11/30 02:03:14;;;;;;;15.95;11.07;;;7.20;99.90;;;;;;5048169;28;20416;-73
2022/11/30 02:05:40;;;;;;;14.13;10.77;;;7.20;99.90;;;;;;5038241;28;20410;-72
2022/11/30 02:08:09;;;;;;;13.23;9.80;;;7.30;99.90;;;;;;5046245;28;20390;-72
2022/11/30 02:10:40;;;;;;;14.05;11.13;;;7.20;99.90;;;;;;5044886;28;20471;-72
2022/11/30 02:13:19;;;;;;;14.32;10.65;;;7.30;99.90;;;;;;5032274;28;20393;-72
2022/11/30 02:15:50;;;;;;;10.35;9.25;;;7.30;99.90;;;;;;5038994;28;20972;-72
2022/11/30 02:18:24;;;;;;;13.90;9.93;;;7.30;99.90;;;;;;5031240;28;20459;-72
2022/11/30 02:21:09;;;;;;;11.65;9.63;;;7.20;99.90;;;;;;5041312;28;20407;-72
2022/11/30 02:24:01;;;;;;;11.82;8.38;;;7.20;99.90;;;;;;5041826;28;20425;-74
2022/11/30 02:26:52;;;;;;;13.35;9.15;;;7.10;99.90;;;;;;5042186;28;20440;-74
2022/11/30 02:29:26;;;;;;;12.90;10.00;;;7.10;99.90;;;;;;5029400;28;20898;-74
2022/11/30 02:32:11;;;;;;;14.38;10.88;;;7.10;99.90;;;;;;5049396;28;20405;-74
2022/11/30 02:34:38;;;;;;;13.98;9.95;;;7.20;99.90;;;;;;5036935;28;20983;-74
2022/11/30 02:37:06;;;;;;;14.90;11.07;;;7.10;99.90;;;;;;5028803;28;20445;-74
2022/11/30 02:39:32;;;;;;;16.10;11.65;;;7.10;99.90;;;;;;5049299;28;20401;-73
2022/11/30 02:41:58;;;;;;;17.30;11.32;;;7.10;99.90;;;;;;5050160;28;20388;-74
2022/11/30 02:44:25;;;;;;;14.88;11.02;;;7.20;99.90;;;;;;5030823;28;20457;-74
2022/11/30 02:47:18;;;;;;;15.10;11.23;;;7.10;99.90;;;;;;5032275;28;20445;-74
2022/11/30 02:49:54;;;;;;;15.43;11.27;;;7.10;99.90;;;;;;5047938;28;20393;-73
2022/11/30 02:52:24;;;;;;;16.77;11.70;;;7.10;99.90;;;;;;5050045;28;20373;-74
2022/11/30 02:54:50;;;;;;;16.25;11.93;;;6.90;99.90;;;;;;5024895;28;20424;-74
2022/11/30 02:57:16;;;;;;;16.58;11.50;;;7.00;99.90;;;;;;5045763;28;20420;-73
2022/11/30 02:59:41;;;;;;;15.90;12.10;;;7.00;99.90;;;;;;5048298;28;20491;-74
2022/11/30 03:02:07;;;;;;;15.53;11.70;;;7.00;99.90;;;;;;5040023;28;20959;-74
2022/11/30 03:04:33;;;;;;;14.00;11.23;;;7.00;99.90;;;;;;5044670;28;20778;-74
2022/11/30 03:06:58;;;;;;;14.53;11.27;;;7.00;99.90;;;;;;5047329;28;20421;-73
2022/11/30 03:09:24;;;;;;;13.57;10.23;;;7.00;99.90;;;;;;5037949;28;20496;-73
2022/11/30 03:11:50;;;;;;;14.25;10.15;;;7.00;99.90;;;;;;5043116;28;20405;-73
2022/11/30 03:14:16;;;;;;;13.40;9.73;;;7.00;99.90;;;;;;5046878;28;20867;-74
2022/11/30 03:16:43;;;;;;;14.00;11.10;;;7.00;99.90;;;;;;5037163;28;20403;-73
2022/11/30 03:19:08;;;;;;;13.20;10.70;;;7.00;99.90;;;;;;5036758;28;20494;-74
2022/11/30 03:21:34;;;;;;;12.83;9.80;;;7.00;99.90;;;;;;5041211;28;20497;-74
2022/11/30 03:23:59;;;;;;;13.40;10.57;;;7.10;99.90;;;;;;5020543;28;20410;-74
2022/11/30 03:26:25;;;;;;;12.00;9.97;;;7.10;99.90;;;;;;5046433;28;20899;-73
2022/11/30 03:28:50;;;;;;;12.00;10.70;;;7.10;99.90;;;;;;5047938;28;20499;-73
2022/11/30 03:31:16;;;;;;;11.07;9.87;;;7.10;99.90;;;;;;5048583;28;20879;-73
2022/11/30 03:33:42;;;;;;;13.10;10.90;;;7.20;99.90;;;;;;5038675;28;20398;-74
2022/11/30 03:36:09;;;;;;;13.10;10.55;;;7.20;99.90;;;;;;5027076;28;20409;-74
2022/11/30 03:38:35;;;;;;;11.00;9.70;;;7.20;99.90;;;;;;5048504;28;20492;-74
2022/11/30 03:41:10;;;;;;;12.10;10.80;;;7.20;99.90;;;;;;5022315;28;21143;-74
2022/11/30 03:43:36;;;;;;;11.02;9.63;;;7.20;99.90;;;;;;5044589;28;20826;-72
2022/11/30 03:46:02;;;;;;;11.80;9.77;;;7.20;99.90;;;;;;5040896;28;20395;-73
2022/11/30 03:48:27;;;;;;;11.57;9.05;;;7.20;99.90;;;;;;5048112;28;20808;-73
2022/11/30 03:50:53;;;;;;;10.00;8.98;;;7.20;99.90;;;;;;5030099;28;20409;-73
2022/11/30 03:53:20;;;;;;;10.03;9.03;;;7.20;99.90;;;;;;5038772;28;20930;-72
2022/11/30 03:55:54;;;;;;;10.57;9.10;;;7.20;99.90;;;;;;5044771;28;20411;-73
2022/11/30 03:58:20;;;;;;;9.40;8.10;;;7.10;99.90;;;;;;5048286;28;20432;-73
2022/11/30 04:00:46;;;;;;;9.23;7.55;;;7.10;99.90;;;;;;5022762;28;20434;-73
2022/11/30 04:03:12;;;;;;;10.50;8.65;;;7.00;99.90;;;;;;5045957;28;20433;-73
2022/11/30 04:05:37;;;;;;;9.82;8.57;;;7.00;99.90;;;;;;5052170;28;21165;-73
2022/11/30 04:08:03;;;;;;;9.82;8.73;;;7.00;99.90;;;;;;5043932;28;20406;-73
2022/11/30 04:10:29;;;;;;;11.20;8.70;;;7.10;99.90;;;;;;5045096;28;20502;-72
2022/11/30 04:12:54;;;;;;;9.40;8.13;;;7.20;99.90;;;;;;5052280;28;20464;-73
2022/11/30 04:15:20;;;;;;;9.30;8.23;;;7.20;99.90;;;;;;5053105;28;20392;-73
2022/11/30 04:17:45;;;;;;;9.57;8.37;;;7.20;99.90;;;;;;5050464;28;20413;-73
2022/11/30 04:20:11;;;;;;;10.03;8.83;;;7.20;99.90;;;;;;5043636;28;20409;-72
2022/11/30 04:22:37;;;;;;;9.80;8.40;;;7.20;99.90;;;;;;5045654;28;20448;-73
2022/11/30 04:25:02;;;;;;;9.98;8.38;;;7.20;99.90;;;;;;5040211;28;20998;-73
2022/11/30 04:27:28;;;;;;;10.63;8.77;;;7.30;99.90;;;;;;5041873;28;20484;-72
2022/11/30 04:29:54;;;;;;;9.87;7.63;;;7.30;99.90;;;;;;5025879;28;20401;-72
2022/11/30 04:32:19;;;;;;;9.23;8.27;;;7.20;99.90;;;;;;5046160;28;20401;-73
2022/11/30 04:34:45;;;;;;;11.13;8.13;;;7.30;99.90;;;;;;5051191;28;20406;-72
2022/11/30 04:37:10;;;;;;;12.00;8.60;;;7.20;99.90;;;;;;5052719;28;20405;-73
2022/11/30 04:39:36;;;;;;;9.05;7.72;;;7.20;99.90;;;;;;5051836;28;20508;-72
2022/11/30 04:42:01;;;;;;;11.73;9.23;;;7.20;99.90;;;;;;5045971;28;20463;-72
2022/11/30 04:44:27;;;;;;;12.13;9.40;;;7.20;99.90;;;;;;5040675;28;20401;-72
2022/11/30 04:46:52;;;;;;;10.77;8.80;;;7.10;99.90;;;;;;5043591;28;20393;-73
2022/11/30 04:49:18;;;;;;;11.73;9.10;;;7.20;99.90;;;;;;5051823;28;20405;-73
2022/11/30 04:51:43;;;;;;;10.60;8.33;;;7.20;99.90;;;;;;5051050;28;20474;-72
2022/11/30 04:54:09;;;;;;;11.03;8.90;;;7.20;99.90;;;;;;5049374;28;20405;-72
2022/11/30 04:56:35;;;;;;;9.23;7.50;;;7.20;99.90;;;;;;5052974;28;20755;-73
2022/11/30 04:59:01;;;;;;;8.65;7.50;;;7.10;99.90;;;;;;5051548;28;20894;-73
2022/11/30 05:01:27;;;;;;;7.63;6.82;;;7.10;99.90;;;;;;5047162;28;20449;-73
2022/11/30 05:03:52;;;;;;;9.95;7.75;;;7.10;99.90;;;;;;5038596;28;20425;-73
2022/11/30 05:06:18;;;;;;;8.20;6.68;;;7.00;99.90;;;;;;5041268;28;20409;-73
2022/11/30 05:08:43;;;;;;;9.10;7.70;;;6.90;99.90;;;;;;5044933;28;20419;-73
2022/11/30 05:11:09;;;;;;;8.40;7.33;;;6.90;99.90;;;;;;5048124;28;20455;-73
2022/11/30 05:13:34;;;;;;;9.77;7.27;;;6.90;99.90;;;;;;5028124;28;20403;-73
2022/11/30 05:16:00;;;;;;;10.07;7.77;;;6.80;99.90;;;;;;5046285;28;20404;-73
2022/11/30 05:18:26;;;;;;;8.20;7.13;;;6.80;99.90;;;;;;5046915;28;20413;-73
2022/11/30 05:20:52;;;;;;;8.73;7.40;;;6.80;99.90;;;;;;5042090;28;20448;-73
2022/11/30 05:23:18;;;;;;;8.93;7.60;;;6.90;99.90;;;;;;5041434;28;20413;-73
2022/11/30 05:25:45;;;;;;;8.98;7.70;;;6.90;99.90;;;;;;5026308;28;20502;-73
2022/11/30 05:28:11;;;;;;;8.27;6.65;;;6.90;99.90;;;;;;5048306;28;20429;-73
2022/11/30 05:30:41;;;;;;;8.32;7.45;;;6.80;99.90;;;;;;5047653;28;20421;-73
2022/11/30 05:33:07;;;;;;;7.85;7.05;;;6.80;99.90;;;;;;5034206;28;20415;-73
2022/11/30 05:35:33;;;;;;;9.80;7.75;;;6.80;99.90;;;;;;5049555;28;20432;-73
2022/11/30 05:37:59;;;;;;;8.40;7.40;;;6.70;99.90;;;;;;5046368;28;20413;-73
2022/11/30 05:40:26;;;;;;;7.97;6.80;;;6.70;99.90;;;;;;5046058;28;20519;-73
2022/11/30 05:42:55;;;;;;;7.90;7.10;;;6.70;99.90;;;;;;5046864;28;20791;-73
2022/11/30 05:45:21;;;;;;;8.02;6.50;;;6.60;99.90;;;;;;5042127;28;20417;-73
2022/11/30 05:47:46;;;;;;;8.25;6.78;;;6.60;99.90;;;;;;5049639;28;20407;-73
2022/11/30 05:50:12;;;;;;;6.50;5.90;;;6.70;99.90;;;;;;5038589;28;20471;-73
2022/11/30 05:52:37;;;;;;;7.00;6.30;;;6.70;99.90;;;;;;5046953;28;20398;-73
2022/11/30 05:55:03;;;;;;;7.23;6.53;;;6.80;99.90;;;;;;5051189;28;20417;-73
2022/11/30 05:57:28;;;;;;;7.10;6.40;;;6.80;99.90;;;;;;5047411;28;20408;-73
2022/11/30 05:59:54;;;;;;;7.30;6.40;;;6.80;99.90;;;;;;5046683;28;20409;-73
2022/11/30 06:02:19;;;;;;;7.17;6.20;;;6.80;99.90;;;;;;5048441;28;21067;-73
2022/11/30 06:04:45;;;;;;;9.27;6.90;;;6.80;99.90;;;;;;5046744;28;20892;-73
2022/11/30 06:07:10;;;;;;;7.25;6.35;;;6.70;99.90;;;;;;5043918;28;20417;-73
2022/11/30 06:09:38;;;;;;;8.50;7.20;;;6.70;99.90;;;;;;5047087;28;20408;-74
2022/11/30 06:12:04;;;;;;;7.00;6.30;;;6.70;99.90;;;;;;5045498;28;20399;-73
2022/11/30 06:14:29;;;;;;;6.77;6.07;;;6.70;99.90;;;;;;5050156;28;20895;-74
2022/11/30 06:16:55;;;;;;;7.37;6.40;;;6.60;99.90;;;;;;5049889;28;20866;-73
2022/11/30 06:19:20;;;;;;;7.33;6.63;;;6.70;99.90;;;;;;5049260;28;20549;-73
2022/11/30 06:21:46;;;;;;;7.88;6.70;;;6.70;99.90;;;;;;5051151;28;20389;-73
2022/11/30 06:24:11;;;;;;;7.55;5.97;;;6.70;99.90;;;;;;5040732;28;20403;-73
2022/11/30 06:26:37;;;;;;;7.97;6.53;;;6.70;99.90;;;;;;5046718;28;20549;-73
2022/11/30 06:29:02;;;;;;;7.23;6.20;;;6.70;99.90;;;;;;5047022;28;20463;-73
2022/11/30 06:31:30;;;;;;;6.80;5.43;;;6.80;99.90;;;;;;5048921;28;20894;-73
2022/11/30 06:33:56;;;;;;;7.53;6.70;;;6.70;99.90;;;;;;5046913;28;20437;-73
2022/11/30 06:36:22;;;;;;;8.45;6.20;;;6.70;99.90;;;;;;5043090;28;20413;-73
2022/11/30 06:38:49;;;;;;;6.80;6.10;;;6.70;99.90;;;;;;5043406;28;20468;-74
2022/11/30 06:41:14;;;;;;;6.00;5.40;;;6.70;99.90;;;;;;5047940;28;20527;-73
2022/11/30 06:43:40;;;;;;;7.40;6.07;;;6.70;99.90;;;;;;5049107;28;20451;-73
2022/11/30 06:46:06;;;;;;;7.35;6.00;;;6.60;99.90;;;;;;5050701;28;20508;-73
2022/11/30 06:48:32;;;;;;;7.10;6.40;;;6.70;99.90;;;;;;5048378;28;20414;-73
2022/11/30 06:50:59;;;;;;;6.80;5.90;;;6.60;99.90;;;;;;5031933;28;20492;-74
2022/11/30 06:53:25;;;;;;;6.55;5.90;;;6.50;99.90;;;;;;5048899;28;20461;-74
2022/11/30 06:55:50;;;;;;;6.90;6.20;;;6.50;99.90;;;;;;5043571;28;20656;-74
2022/11/30 06:58:16;;;;;;;6.70;6.00;;;6.50;99.90;;;;;;5030944;28;20935;-73
2022/11/30 07:00:42;;;;;;;6.30;5.50;;;6.60;99.90;;;;;;5031222;28;20440;-73
2022/11/30 07:03:08;;;;;;;7.13;6.17;;;6.50;99.90;;;;;;5022778;28;20984;-74
2022/11/30 07:05:40;;;;;;;7.07;6.00;;;6.60;99.90;;;;;;5041622;28;20394;-73
2022/11/30 07:08:06;;;;;;;7.30;5.93;;;6.60;99.90;;;;;;5028935;28;20492;-73
2022/11/30 07:10:31;;;;;;;6.70;5.90;;;6.60;99.90;;;;;;5038838;28;20426;-73
2022/11/30 07:12:57;;;;;;;6.70;6.00;;;6.60;99.90;;;;;;5035793;28;20764;-74
2022/11/30 07:15:23;;;;;;;6.77;6.07;;;6.60;99.90;;;;;;5049872;28;20471;-73
2022/11/30 07:17:48;;;;;;;7.10;5.67;;;6.70;99.90;;;;;;5049879;28;20443;-73
2022/11/30 07:20:14;;;;;;;8.17;5.70;;;6.70;99.90;;;;;;5048985;28;20484;-73
2022/11/30 07:22:39;;;;;;;6.40;5.80;;;6.70;99.90;;;;;;5040822;28;20405;-73
2022/11/30 07:27:49;;;;;;;6.10;5.45;;;6.70;99.90;;;;;;5043869;28;20428;-73
2022/11/30 07:30:15;;;;;;;7.47;5.80;;;6.70;99.90;;;;;;5047734;28;20416;-73
2022/11/30 07:32:41;;;;;;;6.30;5.60;;;6.70;99.90;;;;;;5054571;28;20906;-73
2022/11/30 07:35:07;;;;;;;5.40;4.90;;;6.80;99.90;;;;;;5058909;28;20767;-73
2022/11/30 07:37:32;;;;;;;6.28;5.68;;;6.80;99.90;;;;;;5050738;28;20488;-73
2022/11/30 07:39:58;;;;;;;6.72;5.97;;;7.00;99.90;;;;;;5062178;28;20480;-73
2022/11/30 07:42:23;;;;;;;6.75;5.35;;;6.90;99.90;;;;;;5070765;28;20969;-74
2022/11/30 07:44:49;;;;;;;6.17;5.57;;;6.80;99.90;;;;;;5061165;28;20469;-74
2022/11/30 07:47:15;;;;;;;6.50;5.80;;;6.90;99.90;;;;;;5065496;28;20416;-75
2022/11/30 07:49:40;;;;;;;6.80;5.88;;;6.90;99.90;;;;;;5069838;28;20408;-73
2022/11/30 07:52:07;;;;;;;6.93;6.22;;;6.90;99.90;;;;;;5039028;28;20412;-73
2022/11/30 07:54:32;;;;;;;7.50;6.70;;;7.00;99.90;;;;;;5063643;28;20426;-73
2022/11/30 07:56:58;;;;;;;5.83;5.23;;;7.10;99.90;;;;;;5045653;28;20777;-73
2022/11/30 07:59:23;;;;;;;7.60;6.73;;;7.10;99.90;;;;;;5045453;28;20409;-73
2022/11/30 08:01:49;;;;;;;7.23;6.53;;;7.10;99.90;;;;;;5050205;28;20486;-74
2022/11/30 08:04:15;;;;;;;8.87;7.13;;;7.10;99.90;;;;;;5042210;28;20492;-73
2022/11/30 08:06:40;;;;;;;9.20;8.30;;;7.10;99.90;;;;;;5044784;28;20787;-73
2022/11/30 08:09:06;;;;;;;7.40;6.60;;;7.10;99.90;;;;;;5046383;28;21008;-73
2022/11/30 08:11:33;;;;;;;8.00;7.20;;;7.10;99.90;;;;;;5048678;28;20417;-74
2022/11/30 08:14:01;;;;;;;7.38;6.68;;;7.10;99.90;;;;;;5038343;28;20582;-74
2022/11/30 08:16:29;;;;;;;5.87;5.37;;;7.10;99.90;;;;;;5046217;28;20414;-74
2022/11/30 08:18:55;;;;;;;5.90;5.00;;;7.10;99.90;;;;;;5047546;28;20409;-74
2022/11/30 08:21:21;;;;;;;5.85;5.03;;;7.20;99.90;;;;;;5024744;28;20403;-73
2022/11/30 08:23:55;;;;;;;5.80;5.20;;;7.10;99.90;;;;;;5046967;28;20814;-73
2022/11/30 08:26:22;;;;;;;5.50;4.90;;;7.10;99.90;;;;;;5047382;28;20409;-74
2022/11/30 08:28:49;;;;;;;7.15;5.68;;;7.10;99.90;;;;;;5043890;28;20438;-74
2022/11/30 08:31:24;;;;;;;6.22;5.10;;;7.10;99.90;;;;;;5045605;28;20397;-74
2022/11/30 08:33:53;;;;;;;4.75;4.35;;;7.20;99.90;;;;;;5045659;28;20935;-74
2022/11/30 08:36:21;;;;;;;6.13;5.30;;;7.10;99.90;;;;;;5047666;28;20417;-74
2022/11/30 08:38:47;;;;;;;5.70;5.10;;;7.10;99.90;;;;;;5051663;28;20496;-74
2022/11/30 08:41:18;;;;;;;5.47;4.78;;;7.00;99.90;;;;;;5043520;28;20487;-74
2022/11/30 08:43:43;;;;;;;5.88;5.28;;;7.10;99.90;;;;;;5049955;28;20404;-74
2022/11/30 08:46:12;;;;;;;5.30;4.80;;;7.20;99.90;;;;;;5052801;28;20381;-74
2022/11/30 08:48:37;;;;;;;5.30;4.75;;;7.10;99.90;;;;;;5052950;28;20389;-74
2022/11/30 08:51:06;;;;;;;7.20;5.43;;;7.20;99.90;;;;;;5053035;28;20383;-74
2022/11/30 08:53:32;;;;;;;5.07;4.57;;;7.20;99.90;;;;;;5052262;28;20438;-75
2022/11/30 08:56:04;;;;;;;5.72;4.90;;;7.30;99.90;;;;;;5052750;28;20386;-75
2022/11/30 08:58:34;;;;;;;5.97;4.90;;;7.30;99.90;;;;;;5052746;28;20450;-74
2022/11/30 09:01:07;;;;;;;5.95;5.35;;;7.30;99.90;;;;;;5052696;28;20489;-74
2022/11/30 09:03:32;;;;;;;6.22;5.63;;;7.30;99.90;;;;;;5052011;28;20385;-75
2022/11/30 09:06:13;;;;;;;6.32;5.72;;;7.20;99.90;;;;;;5052532;28;20867;-74
2022/11/30 09:08:43;;;;;;;7.00;6.30;;;7.20;99.90;;;;;;5052483;28;20438;-74
2022/11/30 09:11:32;;;;;;;6.13;5.53;;;7.30;99.90;;;;;;5032174;28;20402;-74
2022/11/30 09:14:00;;;;;;;6.03;5.43;;;7.40;99.90;;;;;;5031558;28;20391;-74
2022/11/30 09:16:26;;;;;;;6.38;5.72;;;7.60;99.90;;;;;;5032398;28;20387;-74
2022/11/30 09:18:53;;;;;;;6.05;5.45;;;7.70;99.90;;;;;;5032367;28;20409;-75
2022/11/30 09:21:20;;;;;;;4.80;4.30;;;7.70;99.90;;;;;;5032566;28;20828;-75
2022/11/30 09:23:48;;;;;;;5.90;5.18;;;7.60;99.90;;;;;;5031974;28;20412;-74
2022/11/30 09:26:16;;;;;;;6.60;5.65;;;7.70;99.90;;;;;;5014528;28;20387;-75
2022/11/30 09:28:44;;;;;;;5.55;5.05;;;7.70;99.90;;;;;;5014622;28;20383;-75
2022/11/30 09:31:11;;;;;;;5.82;5.22;;;7.60;99.90;;;;;;5032288;28;20410;-75
2022/11/30 09:33:37;;;;;;;6.03;5.43;;;7.70;99.90;;;;;;5031710;28;20414;-75
2022/11/30 09:36:15;;;;;;;5.63;5.13;;;7.90;99.90;;;;;;5032338;28;20391;-75
2022/11/30 09:38:41;;;;;;;6.75;5.40;;;8.00;99.90;;;;;;5032036;28;20407;-75
2022/11/30 09:41:38;;;;;;;5.53;5.03;;;8.00;99.90;;;;;;5014145;28;20379;-74
2022/11/30 09:44:20;;;;;;;6.00;5.10;;;8.20;99.90;;;;;;5006481;28;20441;-73
2022/11/30 09:47:23;;;;;;;5.20;4.70;;;8.10;99.90;;;;;;5031932;28;20433;-74
2022/11/30 09:49:48;;;;;;;6.50;5.63;;;8.00;99.90;;;;;;5031294;28;20423;-74
2022/11/30 09:52:25;;;;;;;6.00;5.40;;;7.90;99.90;;;;;;5031306;28;20469;-74
2022/11/30 09:54:50;;;;;;;6.50;5.75;;;8.00;99.90;;;;;;5030596;28;20436;-74
2022/11/30 09:57:30;;;;;;;7.10;6.00;;;8.00;99.90;;;;;;5030768;28;20469;-75
2022/11/30 10:00:11;;;;;;;6.50;5.90;;;7.80;99.90;;;;;;5030157;28;20486;-74
2022/11/30 10:02:37;;;;;;;6.45;5.85;;;7.70;99.90;;;;;;5030226;28;20461;-74
2022/11/30 10:05:13;;;;;;;6.90;5.50;;;7.70;99.90;;;;;;5030947;28;20415;-74
2022/11/30 10:08:01;;;;;;;6.53;5.93;;;7.90;99.90;;;;;;5030703;28;20462;-74
2022/11/30 10:10:26;;;;;;;7.10;5.70;;;8.00;99.90;;;;;;5045138;28;20474;-75
2022/11/30 10:13:10;;;;;;;6.37;5.70;;;7.90;99.90;;;;;;5049306;28;20719;-74
2022/11/30 10:15:42;;;;;;;7.23;6.17;;;8.10;99.90;;;;;;5051469;28;20388;-74
2022/11/30 10:18:22;;;;;;;6.63;5.93;;;8.10;99.90;;;;;;5050954;28;20787;-74
2022/11/30 10:21:10;;;;;;;7.25;6.55;;;8.10;99.90;;;;;;5051190;28;20480;-74
2022/11/30 10:24:07;;;;;;;7.30;6.50;;;8.20;99.90;;;;;;5050431;28;20448;-74
2022/11/30 10:26:36;;;;;;;6.90;6.20;;;8.20;99.90;;;;;;5051082;28;20783;-74
2022/11/30 10:29:30;;;;;;;6.53;5.93;;;8.20;99.90;;;;;;5051009;28;20814;-74
2022/11/30 10:31:58;;;;;;;6.90;6.20;;;7.90;99.90;;;;;;5051068;28;20377;-74
2022/11/30 10:34:36;;;;;;;8.90;6.37;;;8.00;99.90;;;;;;5050266;28;20405;-74
2022/11/30 10:37:17;;;;;;;7.53;6.73;;;8.10;99.90;;;;;;5050954;28;20385;-74
2022/11/30 10:39:55;;;;;;;7.70;6.40;;;8.20;99.90;;;;;;5050833;28;20378;-74
2022/11/30 10:42:36;;;;;;;7.35;6.40;;;8.10;99.90;;;;;;5050852;28;20756;-74
2022/11/30 10:45:10;;;;;;;6.68;5.97;;;8.20;99.90;;;;;;5050953;28;20378;-74
2022/11/30 10:47:40;;;;;;;6.47;5.90;;;8.20;99.90;;;;;;5050864;28;20377;-74
2022/11/30 10:50:06;;;;;;;7.80;6.30;;;8.40;99.90;;;;;;5049553;28;20395;-74
2022/11/30 10:52:42;;;;;;;6.35;5.75;;;8.30;99.90;;;;;;5050172;28;20439;-75
2022/11/30 10:55:16;;;;;;;6.90;5.90;;;8.40;99.90;;;;;;5050839;28;20373;-75
2022/11/30 10:57:42;;;;;;;6.33;5.40;;;8.40;99.90;;;;;;5049311;28;20447;-74
2022/11/30 11:00:13;;;;;;;6.40;5.80;;;8.60;99.90;;;;;;5050894;28;20385;-74
2022/11/30 11:02:43;;;;;;;6.50;5.90;;;8.70;99.90;;;;;;5049808;28;20477;-74
2022/11/30 11:05:25;;;;;;;6.05;5.45;;;8.70;99.90;;;;;;5050001;28;20388;-74
2022/11/30 11:08:16;;;;;;;6.97;6.27;;;8.70;99.90;;;;;;5049031;28;20548;-74
2022/11/30 11:10:42;;;;;;;6.28;5.68;;;8.70;99.90;;;;;;5050541;28;20413;-74
2022/11/30 11:13:33;;;;;;;5.70;5.20;;;8.80;99.90;;;;;;5049697;28;20831;-75
2022/11/30 11:16:01;;;;;;;6.15;5.55;;;8.90;99.90;;;;;;5050572;28;20386;-75
2022/11/30 11:18:34;;;;;;;6.70;5.70;;;9.00;99.90;;;;;;5050080;28;20459;-74
2022/11/30 11:21:03;;;;;;;6.28;5.63;;;8.80;99.90;;;;;;5050555;28;20446;-74
2022/11/30 11:23:39;;;;;;;7.35;6.53;;;9.00;99.90;;;;;;5049351;28;20411;-75
2022/11/30 11:26:25;;;;;;;6.90;6.20;;;8.90;99.90;;;;;;5032364;28;20904;-74
2022/11/30 11:28:52;;;;;;;6.30;5.55;;;9.00;99.90;;;;;;5050349;28;20397;-73
2022/11/30 11:31:43;;;;;;;6.80;6.20;;;9.00;99.90;;;;;;5050531;28;20755;-74
2022/11/30 11:34:32;;;;;;;7.10;5.80;;;9.00;99.90;;;;;;5031796;28;20421;-75
2022/11/30 11:37:25;;;;;;;7.93;5.68;;;8.90;99.90;;;;;;5041212;28;20416;-74
2022/11/30 11:39:56;;;;;;;5.40;4.90;;;8.70;99.90;;;;;;5050233;28;20390;-73
2022/11/30 11:42:22;;;;;;;5.40;4.90;;;8.80;99.90;;;;;;5050106;28;20457;-72
2022/11/30 11:44:54;;;;;;;4.72;4.22;;;9.00;99.90;;;;;;5031844;28;20381;-73
2022/11/30 11:47:27;;;;;;;4.22;3.80;;;9.10;99.90;;;;;;5049986;28;20424;-73
2022/11/30 11:50:27;;;;;;;4.30;3.90;;;9.10;99.90;;;;;;5050097;28;20373;-73
2022/11/30 11:53:14;;;;;;;4.28;3.88;;;9.10;99.90;;;;;;5024068;28;20511;-73
2022/11/30 11:55:41;;;;;;;4.03;3.63;;;9.50;99.90;;;;;;5050083;28;20382;-74
2022/11/30 11:58:15;;;;;;;3.80;3.40;;;9.50;99.90;;;;;;5049957;28;20829;-74
2022/11/30 12:00:41;;;;;;;4.07;3.60;;;9.80;99.90;;;;;;5050130;28;20887;-74
2022/11/30 12:03:21;;;;;;;4.10;3.70;;;10.30;99.90;;;;;;5049127;28;20385;-75
2022/11/30 12:06:02;;;;;;;3.90;3.60;;;9.70;99.90;;;;;;5050063;28;20480;-75
2022/11/30 12:08:43;;;;;;;3.30;3.00;;;9.80;99.90;;;;;;5049883;28;20397;-74
2022/11/30 12:11:27;;;;;;;4.47;3.60;;;9.70;99.90;;;;;;5030053;28;20448;-74
2022/11/30 12:13:52;;;;;;;3.63;3.33;;;9.80;99.90;;;;;;5029236;28;20925;-74
2022/11/30 12:16:30;;;;;;;3.67;3.10;;;10.70;99.90;;;;;;5032171;28;20459;-76
2022/11/30 12:18:58;;;;;;;4.85;3.15;;;12.10;99.90;;;;;;5015610;28;20955;-75
2022/11/30 12:21:33;;;;;;;3.90;3.50;;;11.70;99.90;;;;;;5015844;28;20439;-75
2022/11/30 12:24:36;;;;;;;3.65;3.35;;;11.20;99.90;;;;;;5032689;28;20375;-75
2022/11/30 12:27:28;;;;;;;3.40;3.10;;;10.50;99.90;;;;;;5015711;28;20391;-75
2022/11/30 12:30:10;;;;;;;3.40;3.10;;;10.40;99.90;;;;;;5033809;28;20466;-75
2022/11/30 12:33:04;;;;;;;3.70;3.40;;;10.10;99.90;;;;;;5032650;28;20391;-74
2022/11/30 12:35:54;;;;;;;4.03;3.20;;;9.90;99.90;;;;;;5015492;28;20969;-74
2022/11/30 12:38:31;;;;;;;3.70;3.40;;;10.10;99.90;;;;;;5015493;28;20496;-75
2022/11/30 12:41:05;;;;;;;3.80;3.50;;;10.00;99.90;;;;;;5015671;28;20459;-74
2022/11/30 12:44:04;;;;;;;4.43;3.75;;;10.00;99.90;;;;;;5014644;28;20387;-74
2022/11/30 12:46:57;;;;;;;3.80;3.50;;;10.30;99.90;;;;;;5015369;28;20468;-74
2022/11/30 12:50:00;;;;;;;3.70;3.40;;;10.70;99.90;;;;;;5033049;28;20857;-73
2022/11/30 12:53:04;;;;;;;4.35;3.95;;;10.90;99.90;;;;;;5036863;28;20427;-74
2022/11/30 12:55:49;;;;;;;3.88;3.58;;;10.60;99.90;;;;;;5035739;28;20775;-73
2022/11/30 12:58:21;;;;;;;6.10;3.90;;;10.30;99.90;;;;;;5052630;28;20702;-74
2022/11/30 13:01:10;;;;;;;4.53;3.90;;;10.50;99.90;;;;;;5034993;28;20382;-74
2022/11/30 13:04:03;;;;;;;3.92;3.15;;;10.40;99.90;;;;;;5043938;28;20386;-74
2022/11/30 13:06:42;;;;;;;4.10;3.58;;;10.50;99.90;;;;;;5052433;28;20389;-74
2022/11/30 13:09:22;;;;;;;3.22;2.92;;;10.40;99.90;;;;;;5051713;28;20393;-73